Time;durP1;ratioP1;P1;durP2;ratioP2;P2;SDS_P1;SDS_P2;PMS_P1;PMS_P2;Temp;Humidity;BMP_temperature;BMP_pressure;BME280_temperature;BME280_humidity;BME280_pressure;Samples;Min_cycle;Max_cycle;Signal;HPM_P1;HPM_P2
2022/02/20 00:00:53;;;;;;;6.50;1.58;;;4.90;85.20;;;;;;4988251;28;20109;-70
2022/02/20 00:03:18;;;;;;;4.07;1.10;;;4.80;86.00;;;;;;4987045;28;20442;-70
2022/02/20 00:05:44;;;;;;;7.22;1.48;;;4.70;86.90;;;;;;4989478;28;20026;-70
2022/02/20 00:08:10;;;;;;;4.32;1.17;;;4.60;87.80;;;;;;4977281;28;20039;-70
2022/02/20 00:10:36;;;;;;;6.20;1.15;;;4.50;88.60;;;;;;4981094;28;20131;-70
2022/02/20 00:13:03;;;;;;;4.32;1.20;;;4.50;89.50;;;;;;4987480;28;20069;-70
2022/02/20 00:15:30;;;;;;;5.45;1.40;;;4.40;90.20;;;;;;4987783;28;20045;-70
2022/02/20 00:17:57;;;;;;;2.85;1.02;;;4.40;90.60;;;;;;4987334;28;20037;-70
2022/02/20 00:20:29;;;;;;;2.85;1.00;;;4.30;91.10;;;;;;4977811;28;20177;-70
2022/02/20 00:22:55;;;;;;;5.50;1.42;;;4.30;91.80;;;;;;4990556;28;20041;-70
2022/02/20 00:25:21;;;;;;;4.40;1.00;;;4.20;91.90;;;;;;4992855;28;20040;-70
2022/02/20 00:27:47;;;;;;;4.47;1.10;;;4.20;92.40;;;;;;4994329;28;20038;-69
2022/02/20 00:30:13;;;;;;;3.58;1.15;;;4.20;92.80;;;;;;4989778;28;20167;-70
2022/02/20 00:32:39;;;;;;;2.90;1.10;;;4.20;93.10;;;;;;4983748;28;20532;-70
2022/02/20 00:35:05;;;;;;;5.70;1.10;;;4.20;93.40;;;;;;4992933;28;20038;-70
2022/02/20 00:37:30;;;;;;;4.88;1.45;;;4.30;93.70;;;;;;4992132;28;20025;-70
2022/02/20 00:39:56;;;;;;;3.42;1.00;;;4.30;94.00;;;;;;4992589;28;20027;-70
2022/02/20 00:42:21;;;;;;;3.72;0.80;;;4.40;94.20;;;;;;4990416;28;20429;-71
2022/02/20 00:44:47;;;;;;;2.55;0.65;;;4.40;94.60;;;;;;4987087;28;20422;-70
2022/02/20 00:47:13;;;;;;;3.95;0.80;;;4.50;94.90;;;;;;4978207;28;20034;-69
2022/02/20 00:49:38;;;;;;;4.03;1.10;;;4.50;95.10;;;;;;4991537;28;20065;-70
2022/02/20 00:52:04;;;;;;;1.25;0.80;;;4.50;95.30;;;;;;4992605;28;20048;-70
2022/02/20 00:54:30;;;;;;;2.08;1.17;;;4.60;95.60;;;;;;4993242;28;20022;-70
2022/02/20 00:56:55;;;;;;;1.52;0.75;;;4.60;95.50;;;;;;4989214;28;20041;-70
2022/02/20 00:59:21;;;;;;;4.03;0.88;;;4.60;95.60;;;;;;4992398;28;20098;-70
2022/02/20 01:01:46;;;;;;;3.15;0.90;;;4.70;95.80;;;;;;4992534;28;20042;-70
2022/02/20 01:04:12;;;;;;;3.08;0.80;;;4.70;95.90;;;;;;4992696;28;20379;-70
2022/02/20 01:06:38;;;;;;;4.38;0.80;;;4.70;95.90;;;;;;4992154;28;20403;-69
2022/02/20 01:09:04;;;;;;;3.88;1.13;;;4.80;96.10;;;;;;4992156;28;20062;-70
2022/02/20 01:11:30;;;;;;;4.30;1.00;;;4.80;96.20;;;;;;4990700;28;20076;-70
2022/02/20 01:13:56;;;;;;;2.95;1.15;;;4.80;96.40;;;;;;4987090;28;20080;-70
2022/02/20 01:16:22;;;;;;;1.65;0.70;;;4.80;96.40;;;;;;4992692;28;20050;-70
2022/02/20 01:18:48;;;;;;;3.78;1.02;;;4.80;96.50;;;;;;4992096;28;20030;-70
2022/02/20 01:21:13;;;;;;;3.40;1.10;;;4.80;96.60;;;;;;4992085;28;20030;-70
2022/02/20 01:23:39;;;;;;;2.33;0.93;;;4.80;96.70;;;;;;4992631;28;20030;-70
2022/02/20 01:26:04;;;;;;;3.42;1.00;;;4.80;96.90;;;;;;4992208;28;20029;-70
2022/02/20 01:28:30;;;;;;;3.28;0.90;;;4.80;97.00;;;;;;4988046;28;20034;-71
2022/02/20 01:30:56;;;;;;;1.13;0.88;;;4.80;97.10;;;;;;4992132;28;20062;-70
2022/02/20 01:33:22;;;;;;;2.88;0.90;;;4.80;97.20;;;;;;4991465;28;20069;-70
2022/02/20 01:35:47;;;;;;;2.65;0.93;;;4.80;97.40;;;;;;4991832;28;20018;-70
2022/02/20 01:38:16;;;;;;;3.75;1.13;;;4.80;97.50;;;;;;4991777;28;20034;-70
2022/02/20 01:40:43;;;;;;;3.40;1.00;;;4.80;97.60;;;;;;4992129;28;20022;-69
2022/02/20 01:43:10;;;;;;;3.75;1.00;;;4.80;97.70;;;;;;4991403;28;20034;-70
2022/02/20 01:45:37;;;;;;;4.40;1.30;;;4.70;97.80;;;;;;4991570;28;20029;-70
2022/02/20 01:48:02;;;;;;;4.32;1.10;;;4.70;97.90;;;;;;4991070;28;20449;-70
2022/02/20 01:50:28;;;;;;;5.68;1.08;;;4.70;98.00;;;;;;4990784;28;20109;-70
2022/02/20 01:52:53;;;;;;;2.92;0.90;;;4.70;98.20;;;;;;4991890;28;20034;-70
2022/02/20 01:55:19;;;;;;;4.00;1.35;;;4.70;98.30;;;;;;4991483;28;20031;-70
2022/02/20 01:57:46;;;;;;;4.25;1.00;;;4.70;98.40;;;;;;4989543;28;20082;-71
2022/02/20 02:00:15;;;;;;;3.25;1.00;;;4.70;98.50;;;;;;4992003;28;20022;-70
2022/02/20 02:02:41;;;;;;;3.15;0.98;;;4.80;98.70;;;;;;4990282;28;20490;-70
2022/02/20 02:05:07;;;;;;;3.17;0.90;;;4.80;98.70;;;;;;4988118;28;20030;-70
2022/02/20 02:07:33;;;;;;;3.13;1.20;;;4.80;98.80;;;;;;4991041;28;20240;-70
2022/02/20 02:09:59;;;;;;;6.25;0.98;;;4.80;98.90;;;;;;4989934;28;20399;-70
2022/02/20 02:12:25;;;;;;;6.72;0.93;;;4.80;99.20;;;;;;4987740;28;20026;-71
2022/02/20 02:14:57;;;;;;;3.22;1.15;;;4.80;99.00;;;;;;4991287;28;20153;-71
2022/02/20 02:17:23;;;;;;;;;;;4.80;99.10;;;;;;4989535;28;20252;-70
2022/02/20 02:19:49;;;;;;;6.13;0.88;;;4.90;98.90;;;;;;4991751;28;20013;-71
2022/02/20 02:22:18;;;;;;;3.33;1.13;;;4.80;99.00;;;;;;4991184;28;20063;-70
2022/02/20 02:24:44;;;;;;;4.63;1.23;;;4.90;99.20;;;;;;4991196;28;20034;-71
2022/02/20 02:27:12;;;;;;;7.07;1.50;;;4.90;99.30;;;;;;4989439;28;20030;-70
2022/02/20 02:29:38;;;;;;;2.13;1.08;;;4.90;99.40;;;;;;4982139;28;20034;-71
2022/02/20 02:32:04;;;;;;;4.43;1.23;;;4.90;99.40;;;;;;4982965;28;20084;-71
2022/02/20 02:34:30;;;;;;;4.15;0.98;;;4.90;99.40;;;;;;4990501;28;20033;-71
2022/02/20 02:36:56;;;;;;;3.92;1.02;;;4.90;99.60;;;;;;4991393;28;20023;-71
2022/02/20 02:39:21;;;;;;;2.50;0.98;;;4.90;99.80;;;;;;4990485;28;20069;-71
2022/02/20 02:41:47;;;;;;;3.30;1.15;;;4.90;99.80;;;;;;4989382;28;20375;-71
2022/02/20 02:44:13;;;;;;;3.25;1.33;;;4.90;99.90;;;;;;4991122;28;20096;-71
2022/02/20 02:46:38;;;;;;;4.32;1.13;;;4.80;99.90;;;;;;4980134;28;20037;-71
2022/02/20 02:49:04;;;;;;;2.78;1.05;;;4.90;99.90;;;;;;4990186;28;20026;-71
2022/02/20 02:51:30;;;;;;;1.98;0.90;;;4.90;99.90;;;;;;4991100;28;20027;-71
2022/02/20 02:53:57;;;;;;;5.75;1.17;;;4.90;99.90;;;;;;4990716;28;20076;-71
2022/02/20 02:56:23;;;;;;;5.85;1.05;;;4.90;99.90;;;;;;4991154;28;20104;-71
2022/02/20 02:58:49;;;;;;;1.20;0.90;;;4.90;99.90;;;;;;4989869;28;20105;-70
2022/02/20 03:01:15;;;;;;;5.20;1.00;;;4.90;99.90;;;;;;4986235;28;20146;-70
2022/02/20 03:03:40;;;;;;;4.85;1.15;;;4.90;99.90;;;;;;4990058;28;20034;-71
2022/02/20 03:06:11;;;;;;;3.15;1.25;;;4.90;99.90;;;;;;4990697;28;20453;-70
2022/02/20 03:08:36;;;;;;;10.38;1.35;;;4.90;99.90;;;;;;4989340;28;20038;-70
2022/02/20 03:11:06;;;;;;;4.70;1.05;;;4.90;99.90;;;;;;4989430;28;20037;-70
2022/02/20 03:13:32;;;;;;;5.00;1.15;;;4.90;99.90;;;;;;4989884;28;20145;-70
2022/02/20 03:15:59;;;;;;;3.97;1.02;;;4.90;99.90;;;;;;4991202;28;20069;-71
2022/02/20 03:18:25;;;;;;;5.50;1.00;;;4.90;99.90;;;;;;4988001;28;20037;-70
2022/02/20 03:20:50;;;;;;;6.38;1.30;;;5.00;99.90;;;;;;4990105;28;20034;-71
2022/02/20 03:23:16;;;;;;;9.00;1.30;;;5.00;99.90;;;;;;4990702;28;20081;-71
2022/02/20 03:25:42;;;;;;;4.38;0.90;;;5.00;99.90;;;;;;4989778;28;20093;-69
2022/02/20 03:28:08;;;;;;;3.78;0.93;;;5.00;99.90;;;;;;4982787;28;20126;-69
2022/02/20 03:30:33;;;;;;;5.28;1.58;;;5.00;99.90;;;;;;4990309;28;20026;-69
2022/02/20 03:32:59;;;;;;;2.63;0.90;;;5.10;99.90;;;;;;4990380;28;20478;-70
2022/02/20 03:35:25;;;;;;;9.93;1.48;;;5.10;99.90;;;;;;4987516;28;20026;-70
2022/02/20 03:37:51;;;;;;;5.22;1.10;;;5.10;99.90;;;;;;4988446;28;20034;-71
2022/02/20 03:40:16;;;;;;;4.80;1.05;;;5.10;99.90;;;;;;4990645;28;20037;-70
2022/02/20 03:42:42;;;;;;;4.28;1.10;;;5.10;99.90;;;;;;4988912;28;20045;-71
2022/02/20 03:45:08;;;;;;;4.38;0.98;;;5.10;99.90;;;;;;4990013;28;20157;-71
2022/02/20 03:47:34;;;;;;;5.97;1.10;;;5.10;99.90;;;;;;4989468;28;20065;-71
2022/02/20 03:50:00;;;;;;;3.47;0.93;;;5.20;99.90;;;;;;4989736;28;20359;-70
2022/02/20 03:52:25;;;;;;;1.98;0.73;;;5.10;99.90;;;;;;4974475;28;20046;-71
2022/02/20 03:54:51;;;;;;;4.40;0.90;;;5.20;99.90;;;;;;4982700;28;20023;-70
2022/02/20 03:57:16;;;;;;;7.18;1.27;;;5.20;99.90;;;;;;4989224;28;20015;-70
2022/02/20 03:59:42;;;;;;;5.72;1.55;;;5.20;99.90;;;;;;4987307;28;20061;-70
2022/02/20 04:02:08;;;;;;;4.00;1.02;;;5.20;99.90;;;;;;4973774;28;20026;-71
2022/02/20 04:04:34;;;;;;;6.82;1.35;;;5.20;99.90;;;;;;4989294;28;20049;-70
2022/02/20 04:06:59;;;;;;;8.50;1.23;;;5.20;99.90;;;;;;4989480;28;20039;-70
2022/02/20 04:09:25;;;;;;;5.45;1.10;;;5.30;99.90;;;;;;4988863;28;20026;-70
2022/02/20 04:11:51;;;;;;;2.83;1.05;;;5.20;99.90;;;;;;4990053;28;20376;-70
2022/02/20 04:14:17;;;;;;;3.13;1.15;;;5.30;99.90;;;;;;4985894;28;20085;-71
2022/02/20 04:16:43;;;;;;;3.65;0.98;;;5.20;99.90;;;;;;4989132;28;20113;-70
2022/02/20 04:19:09;;;;;;;4.05;1.05;;;5.30;99.90;;;;;;4988737;28;20050;-70
2022/02/20 04:21:35;;;;;;;5.30;1.30;;;5.30;99.90;;;;;;4987543;28;20045;-71
2022/02/20 04:24:00;;;;;;;3.40;1.00;;;5.30;99.90;;;;;;4980854;28;20031;-71
2022/02/20 04:26:26;;;;;;;5.50;1.20;;;5.30;99.90;;;;;;4987332;28;20100;-71
2022/02/20 04:28:52;;;;;;;4.68;1.15;;;5.30;99.90;;;;;;4995141;28;20088;-70
2022/02/20 04:31:18;;;;;;;3.65;1.02;;;5.30;99.90;;;;;;4984140;28;20030;-71
2022/02/20 04:33:45;;;;;;;5.80;1.10;;;5.30;99.90;;;;;;4986036;28;20041;-71
2022/02/20 04:36:11;;;;;;;4.93;1.20;;;5.30;99.90;;;;;;4989602;28;20040;-71
2022/02/20 04:38:37;;;;;;;5.38;1.42;;;5.30;99.90;;;;;;4988480;28;20045;-71
2022/02/20 04:41:02;;;;;;;4.53;1.08;;;5.30;99.90;;;;;;4988134;28;20023;-70
2022/02/20 04:43:28;;;;;;;2.65;0.70;;;5.30;99.90;;;;;;4989555;28;20049;-70
2022/02/20 04:45:53;;;;;;;2.80;0.90;;;5.30;99.90;;;;;;4989526;28;20038;-72
2022/02/20 04:48:19;;;;;;;2.28;0.90;;;5.30;99.90;;;;;;4989348;28;20019;-71
2022/02/20 04:50:44;;;;;;;7.78;1.00;;;5.30;99.90;;;;;;4989862;28;20602;-71
2022/02/20 04:53:10;;;;;;;3.78;0.98;;;5.30;99.90;;;;;;4981191;28;20039;-71
2022/02/20 04:55:36;;;;;;;4.28;1.02;;;5.30;99.90;;;;;;4988481;28;20042;-71
2022/02/20 04:58:01;;;;;;;2.75;0.80;;;5.40;99.90;;;;;;4980621;28;20545;-72
2022/02/20 05:00:27;;;;;;;3.50;0.90;;;5.30;99.90;;;;;;4984624;28;20054;-71
2022/02/20 05:02:53;;;;;;;3.72;0.80;;;5.30;99.90;;;;;;4989375;28;20518;-71
2022/02/20 05:05:19;;;;;;;4.13;1.13;;;5.30;99.90;;;;;;4989293;28;20030;-71
2022/02/20 05:07:44;;;;;;;5.22;1.00;;;5.30;99.90;;;;;;4991453;28;20045;-71
2022/02/20 05:10:10;;;;;;;1.85;0.80;;;5.30;99.90;;;;;;4987071;28;20617;-71
2022/02/20 05:12:36;;;;;;;8.07;1.33;;;5.30;99.90;;;;;;4983717;28;20113;-71
2022/02/20 05:15:02;;;;;;;4.95;0.73;;;5.30;99.90;;;;;;4992677;28;20026;-71
2022/02/20 05:17:28;;;;;;;3.95;0.93;;;5.30;99.90;;;;;;4991209;28;20033;-70
2022/02/20 05:19:53;;;;;;;3.60;0.80;;;5.30;99.90;;;;;;4992626;28;20121;-71
2022/02/20 05:22:19;;;;;;;1.27;0.80;;;5.30;99.90;;;;;;4992550;28;20505;-71
2022/02/20 05:24:45;;;;;;;4.45;0.80;;;5.30;99.90;;;;;;4992576;28;20045;-71
2022/02/20 05:31:23;;;;;;;1.98;0.70;;;5.40;99.90;;;;;;5027347;28;20042;-91
2022/02/20 05:34:32;;;;;;;2.17;0.90;;;5.40;99.90;;;;;;5029946;28;20042;-91
2022/02/20 05:37:50;;;;;;;3.00;0.80;;;5.40;99.90;;;;;;5035857;28;20057;-90
2022/02/20 05:40:41;;;;;;;2.25;0.85;;;5.30;99.90;;;;;;5023817;28;20033;-91
2022/02/20 05:43:16;;;;;;;3.70;0.90;;;5.30;99.90;;;;;;5032892;28;20026;-92
2022/02/20 05:46:02;;;;;;;2.83;0.90;;;5.40;99.90;;;;;;5036442;28;20038;-92
2022/02/20 05:49:05;;;;;;;;;;;;;;;;;;;;;
2022/02/20 05:52:11;;;;;;;;;;;;;;;;;;;;;
2022/02/20 05:54:53;;;;;;;3.90;1.10;;;5.40;99.90;;;;;;5035634;28;20057;-92
2022/02/20 05:57:43;;;;;;;2.87;0.97;;;5.40;99.90;;;;;;5033299;28;20034;-91
2022/02/20 06:00:45;;;;;;;2.80;0.98;;;5.40;99.90;;;;;;5008394;28;20101;-91
2022/02/20 06:03:44;;;;;;;3.43;0.83;;;5.40;99.90;;;;;;5028174;28;20017;-92
2022/02/20 06:07:03;;;;;;;1.85;0.75;;;5.40;99.90;;;;;;5036951;28;20021;-91
2022/02/20 06:13:08;;;;;;;2.25;0.80;;;5.30;99.90;;;;;;5035621;28;20057;-91
2022/02/20 06:20:01;;;;;;;1.60;0.65;;;5.30;99.90;;;;;;5032358;28;20057;-93
2022/02/20 06:23:32;;;;;;;1.67;0.60;;;5.30;99.90;;;;;;5012962;28;20031;-92
2022/02/20 06:26:44;;;;;;;2.78;0.88;;;5.30;99.90;;;;;;5010334;28;20038;-92
2022/02/20 06:29:41;;;;;;;3.20;1.00;;;5.30;99.90;;;;;;5015767;28;20040;-91
2022/02/20 06:32:38;;;;;;;2.30;0.80;;;5.30;99.90;;;;;;4996918;28;20060;-91
2022/02/20 06:35:55;;;;;;;1.10;0.60;;;5.40;99.90;;;;;;5012255;28;20509;-91
2022/02/20 06:39:06;;;;;;;2.63;1.00;;;5.40;99.90;;;;;;5008763;28;20029;-92
2022/02/20 06:42:27;;;;;;;;;;;;;;;;;;;;;
2022/02/20 06:45:17;;;;;;;1.25;0.82;;;5.40;99.90;;;;;;5031997;28;20041;-92
2022/02/20 06:48:24;;;;;;;;;;;;;;;;;;;;;
2022/02/20 06:51:28;;;;;;;1.40;0.50;;;5.40;99.90;;;;;;5052188;28;20060;-91
2022/02/20 06:54:27;;;;;;;2.30;1.25;;;5.40;99.90;;;;;;5018060;28;20118;-92
2022/02/20 07:00:34;;;;;;;2.58;0.70;;;5.40;99.90;;;;;;5032380;28;20037;-92
2022/02/20 07:03:47;;;;;;;1.00;0.70;;;5.30;99.90;;;;;;5033840;28;20022;-92
2022/02/20 07:07:02;;;;;;;;;;;;;;;;;;;;;
2022/02/20 07:09:57;;;;;;;1.58;0.90;;;5.40;99.90;;;;;;5032024;28;20054;-93
2022/02/20 07:13:26;;;;;;;2.55;0.90;;;5.40;99.90;;;;;;5033783;28;20022;-92
2022/02/20 07:16:23;;;;;;;2.95;0.90;;;5.40;99.90;;;;;;5028817;28;20022;-91
2022/02/20 07:18:49;;;;;;;3.67;1.17;;;5.40;99.90;;;;;;5036407;23;20026;-67
2022/02/20 07:21:15;;;;;;;1.83;0.73;;;5.40;99.90;;;;;;5030449;28;20041;-67
2022/02/20 07:23:40;;;;;;;3.80;0.90;;;5.50;99.90;;;;;;5025571;28;20049;-67
2022/02/20 07:26:06;;;;;;;4.90;0.82;;;5.50;99.90;;;;;;5029628;28;20084;-67
2022/02/20 07:28:31;;;;;;;3.17;0.93;;;5.50;99.90;;;;;;5020701;28;20265;-67
2022/02/20 07:30:57;;;;;;;3.13;0.82;;;5.60;99.90;;;;;;5027377;28;20080;-67
2022/02/20 07:33:22;;;;;;;4.70;0.88;;;5.60;99.90;;;;;;5029454;28;20029;-67
2022/02/20 07:35:48;;;;;;;3.13;0.73;;;5.60;99.90;;;;;;5028235;28;20056;-67
2022/02/20 07:38:13;;;;;;;0.85;0.77;;;5.60;99.90;;;;;;5019799;28;20022;-67
2022/02/20 07:40:39;;;;;;;1.77;0.52;;;5.60;99.90;;;;;;5030042;28;20018;-67
2022/02/20 07:43:04;;;;;;;2.28;0.50;;;5.60;99.90;;;;;;5024678;28;20030;-67
2022/02/20 07:45:30;;;;;;;1.50;0.90;;;5.60;99.90;;;;;;5021301;28;20035;-67
2022/02/20 07:47:59;;;;;;;0.55;0.50;;;5.60;99.90;;;;;;5027883;28;20073;-67
2022/02/20 07:50:31;;;;;;;2.75;0.60;;;5.70;99.90;;;;;;5029502;28;20021;-67
2022/02/20 07:52:57;;;;;;;0.73;0.63;;;5.70;99.90;;;;;;5019012;28;20167;-67
2022/02/20 07:55:23;;;;;;;1.00;0.57;;;5.70;99.90;;;;;;5030068;28;20025;-67
2022/02/20 07:57:49;;;;;;;1.88;0.73;;;5.70;99.90;;;;;;5026672;28;20026;-63
2022/02/20 08:00:20;;;;;;;2.17;0.90;;;5.70;99.90;;;;;;5028203;28;20036;-65
2022/02/20 08:02:46;;;;;;;1.33;0.70;;;5.70;99.90;;;;;;5028199;28;20041;-66
2022/02/20 08:05:12;;;;;;;0.73;0.60;;;5.70;99.90;;;;;;5024400;28;20365;-67
2022/02/20 08:07:38;;;;;;;0.98;0.77;;;5.70;99.90;;;;;;5027384;28;20102;-67
2022/02/20 08:10:04;;;;;;;1.00;0.60;;;5.70;99.90;;;;;;5025952;28;20473;-67
2022/02/20 08:12:30;;;;;;;2.28;0.80;;;5.80;99.90;;;;;;5028673;28;20113;-67
2022/02/20 08:14:56;;;;;;;0.93;0.50;;;5.80;99.90;;;;;;5029265;28;20149;-67
2022/02/20 08:17:22;;;;;;;3.88;1.17;;;5.80;99.90;;;;;;5028247;28;20033;-67
2022/02/20 08:19:48;;;;;;;0.80;0.80;;;5.80;99.90;;;;;;5025061;28;20547;-67
2022/02/20 08:22:14;;;;;;;2.50;0.75;;;5.90;99.90;;;;;;5021033;28;20120;-67
2022/02/20 08:24:39;;;;;;;2.53;1.10;;;5.90;99.90;;;;;;5023813;28;20048;-67
2022/02/20 08:27:05;;;;;;;2.55;1.13;;;5.90;99.90;;;;;;5023010;28;20037;-67
2022/02/20 08:29:30;;;;;;;1.40;0.70;;;5.90;99.90;;;;;;5028917;28;20030;-67
2022/02/20 08:31:57;;;;;;;2.00;1.50;;;5.90;99.90;;;;;;5026505;28;20033;-67
2022/02/20 08:34:23;;;;;;;1.65;1.17;;;6.00;99.90;;;;;;5029191;28;20025;-67
2022/02/20 08:36:49;;;;;;;3.90;1.10;;;6.00;99.90;;;;;;5027972;28;20427;-67
2022/02/20 08:39:14;;;;;;;1.98;0.98;;;6.00;99.90;;;;;;5027574;28;20033;-67
2022/02/20 08:41:40;;;;;;;1.05;0.95;;;6.10;99.90;;;;;;5030138;28;20048;-67
2022/02/20 08:44:06;;;;;;;1.30;1.02;;;6.10;99.90;;;;;;5032521;28;20116;-67
2022/02/20 08:46:32;;;;;;;1.85;1.08;;;6.10;99.90;;;;;;5032522;28;20040;-67
2022/02/20 08:48:57;;;;;;;1.77;0.80;;;6.10;99.90;;;;;;5029547;28;20037;-67
2022/02/20 08:51:23;;;;;;;2.65;1.40;;;6.10;99.90;;;;;;5031303;28;20083;-67
2022/02/20 08:53:48;;;;;;;1.63;0.80;;;6.20;99.90;;;;;;5032663;28;20045;-67
2022/02/20 08:56:14;;;;;;;0.88;0.60;;;6.20;99.90;;;;;;5032097;28;20029;-67
2022/02/20 08:58:40;;;;;;;1.58;0.73;;;6.30;99.90;;;;;;5031139;28;20030;-67
2022/02/20 09:01:06;;;;;;;1.73;0.80;;;6.30;99.90;;;;;;5029615;28;20109;-67
2022/02/20 09:03:32;;;;;;;2.13;0.80;;;6.40;99.90;;;;;;5031528;28;20025;-67
2022/02/20 09:05:58;;;;;;;1.48;0.77;;;6.40;99.90;;;;;;5032408;28;20152;-67
2022/02/20 09:08:24;;;;;;;0.95;0.80;;;6.50;99.90;;;;;;5031104;28;20079;-67
2022/02/20 09:10:49;;;;;;;0.98;0.60;;;6.60;99.90;;;;;;5031383;28;20029;-67
2022/02/20 09:13:16;;;;;;;2.63;0.70;;;6.60;99.90;;;;;;5032019;28;20119;-67
2022/02/20 09:15:42;;;;;;;2.50;0.98;;;6.60;99.90;;;;;;5031000;28;20100;-67
2022/02/20 09:18:07;;;;;;;2.83;0.80;;;6.60;99.90;;;;;;5030505;28;20549;-67
2022/02/20 09:20:33;;;;;;;3.00;0.98;;;6.70;99.90;;;;;;5031122;28;20112;-67
2022/02/20 09:22:59;;;;;;;1.50;0.93;;;6.70;99.90;;;;;;5027014;28;20025;-67
2022/02/20 09:25:24;;;;;;;3.97;0.90;;;6.60;99.90;;;;;;5026413;28;20053;-68
2022/02/20 09:27:50;;;;;;;1.02;0.60;;;6.70;99.90;;;;;;5027883;28;20029;-67
2022/02/20 09:30:16;;;;;;;2.45;0.80;;;6.70;99.90;;;;;;5031704;28;20557;-68
2022/02/20 09:32:42;;;;;;;5.57;2.65;;;6.70;99.90;;;;;;5025419;28;20474;-68
2022/02/20 09:35:08;;;;;;;2.70;1.00;;;6.70;99.90;;;;;;5029735;28;20129;-68
2022/02/20 09:37:34;;;;;;;1.52;0.90;;;6.80;99.90;;;;;;5028870;28;20041;-67
2022/02/20 09:39:59;;;;;;;1.95;0.80;;;6.80;99.90;;;;;;5026461;28;20033;-68
2022/02/20 09:42:26;;;;;;;2.38;0.90;;;6.90;99.90;;;;;;5030451;28;20115;-68
2022/02/20 09:44:52;;;;;;;0.80;0.70;;;6.90;99.90;;;;;;5030520;28;20429;-68
2022/02/20 09:47:23;;;;;;;1.50;0.82;;;7.00;99.90;;;;;;5028617;28;20108;-66
2022/02/20 09:49:50;;;;;;;1.15;0.60;;;7.00;99.90;;;;;;5023428;28;20176;-66
2022/02/20 09:52:16;;;;;;;2.97;0.90;;;7.00;99.90;;;;;;5029025;28;20029;-67
2022/02/20 09:54:41;;;;;;;1.73;0.90;;;7.10;99.90;;;;;;5030955;28;20346;-67
2022/02/20 09:57:07;;;;;;;1.95;0.70;;;7.00;99.90;;;;;;5028555;28;20022;-66
2022/02/20 09:59:33;;;;;;;2.30;0.70;;;7.10;99.90;;;;;;5030875;28;20424;-67
2022/02/20 10:02:10;;;;;;;1.67;0.73;;;7.10;99.90;;;;;;5029177;28;20520;-66
2022/02/20 10:04:41;;;;;;;1.30;0.95;;;7.10;99.90;;;;;;5030360;28;20056;-67
2022/02/20 10:07:23;;;;;;;7.22;0.90;;;7.10;99.90;;;;;;5024493;28;20041;-67
2022/02/20 10:09:48;;;;;;;2.08;0.82;;;7.10;99.90;;;;;;5029658;28;20057;-67
2022/02/20 10:12:22;;;;;;;2.42;0.70;;;7.20;99.90;;;;;;5026398;28;20029;-67
2022/02/20 10:14:48;;;;;;;3.72;0.90;;;7.20;99.90;;;;;;5031032;28;20362;-67
2022/02/20 10:17:16;;;;;;;1.02;0.80;;;7.20;99.90;;;;;;5017727;28;20447;-67
2022/02/20 10:19:59;;;;;;;0.70;0.52;;;7.20;99.90;;;;;;5029026;28;20515;-67
2022/02/20 10:22:33;;;;;;;2.95;0.80;;;7.20;99.90;;;;;;5025239;28;20065;-67
2022/02/20 10:25:09;;;;;;;0.80;0.70;;;7.20;99.90;;;;;;5028737;28;20025;-67
2022/02/20 10:27:36;;;;;;;1.83;0.60;;;7.20;99.90;;;;;;5024879;28;20025;-68
2022/02/20 10:30:07;;;;;;;2.03;1.08;;;7.20;99.90;;;;;;5032438;28;20183;-67
2022/02/20 10:32:33;;;;;;;1.33;0.80;;;7.20;99.90;;;;;;5024321;28;20033;-67
2022/02/20 10:35:06;;;;;;;0.50;0.50;;;7.20;99.90;;;;;;5029521;28;20657;-67
2022/02/20 10:37:32;;;;;;;2.25;1.00;;;7.20;99.90;;;;;;5028045;28;20108;-67
2022/02/20 10:39:58;;;;;;;1.45;0.75;;;7.20;99.90;;;;;;5029793;28;20029;-67
2022/02/20 10:42:27;;;;;;;1.30;0.80;;;7.30;99.90;;;;;;5025679;28;20025;-67
2022/02/20 10:45:05;;;;;;;1.75;0.80;;;7.30;99.90;;;;;;5024567;28;20113;-68
2022/02/20 10:47:31;;;;;;;1.77;1.00;;;7.30;99.90;;;;;;5020759;28;20032;-67
2022/02/20 10:50:15;;;;;;;1.40;0.70;;;7.30;99.90;;;;;;5033150;28;20029;-68
2022/02/20 10:52:40;;;;;;;1.67;0.80;;;7.30;99.90;;;;;;5026427;28;20029;-68
2022/02/20 10:55:11;;;;;;;0.95;0.70;;;7.40;99.90;;;;;;5030606;28;20029;-68
2022/02/20 10:57:39;;;;;;;1.58;0.60;;;7.40;99.90;;;;;;5028888;28;20444;-67
2022/02/20 11:00:17;;;;;;;0.70;0.70;;;7.40;99.90;;;;;;5030906;28;20022;-67
2022/02/20 11:02:43;;;;;;;0.98;0.63;;;7.40;99.90;;;;;;5029545;28;20044;-67
2022/02/20 11:05:13;;;;;;;2.35;0.90;;;7.50;99.90;;;;;;5029447;28;20036;-68
2022/02/20 11:07:40;;;;;;;1.70;0.70;;;7.50;99.90;;;;;;5029077;28;20022;-68
2022/02/20 11:10:10;;;;;;;1.25;0.50;;;7.50;99.90;;;;;;5030713;28;20048;-67
2022/02/20 11:12:38;;;;;;;1.27;0.52;;;7.50;99.90;;;;;;5025594;28;20275;-67
2022/02/20 11:15:08;;;;;;;0.95;0.50;;;7.50;99.90;;;;;;5022249;28;20053;-68
2022/02/20 11:17:36;;;;;;;1.67;0.80;;;7.40;99.90;;;;;;5009404;28;20393;-68
2022/02/20 11:20:05;;;;;;;1.25;0.60;;;7.50;99.90;;;;;;5028766;28;20059;-67
2022/02/20 11:22:36;;;;;;;1.13;0.47;;;7.40;99.90;;;;;;5024837;28;20041;-68
2022/02/20 11:25:05;;;;;;;1.58;0.60;;;7.50;99.90;;;;;;5026050;28;20485;-68
2022/02/20 11:27:34;;;;;;;0.75;0.70;;;7.50;99.90;;;;;;5024169;23;20132;-70
2022/02/20 11:29:59;;;;;;;0.60;0.60;;;7.50;99.90;;;;;;4990719;28;20154;-70
2022/02/20 11:32:25;;;;;;;1.25;0.77;;;7.50;99.90;;;;;;4980883;28;20046;-70
2022/02/20 11:34:52;;;;;;;3.88;1.83;;;7.50;99.90;;;;;;4988531;28;20133;-71
2022/02/20 11:37:17;;;;;;;0.70;0.70;;;7.50;99.90;;;;;;4986380;28;20113;-68
2022/02/20 11:40:12;;;;;;;0.70;0.70;;;7.50;99.90;;;;;;4990666;28;20455;-68
2022/02/20 11:42:39;;;;;;;0.98;0.77;;;7.50;99.90;;;;;;4983708;28;20045;-69
2022/02/20 11:45:09;;;;;;;1.00;0.68;;;7.50;99.90;;;;;;4989596;28;20041;-67
2022/02/20 11:47:34;;;;;;;0.80;0.60;;;7.60;99.90;;;;;;4988751;28;20030;-70
2022/02/20 11:50:18;;;;;;;0.65;0.60;;;7.50;99.90;;;;;;4990519;28;20030;-69
2022/02/20 11:52:47;;;;;;;0.95;0.70;;;7.60;99.90;;;;;;4990554;28;20117;-70
2022/02/20 11:55:14;;;;;;;2.38;0.70;;;7.60;99.90;;;;;;4972832;28;20414;-70
2022/02/20 11:57:39;;;;;;;2.65;0.93;;;7.60;99.90;;;;;;4980402;28;20037;-68
2022/02/20 12:00:06;;;;;;;2.15;1.20;;;7.60;99.90;;;;;;4991439;28;20022;-69
2022/02/20 12:02:32;;;;;;;0.90;0.90;;;7.60;99.90;;;;;;4991241;28;20054;-68
2022/02/20 12:04:57;;;;;;;0.70;0.60;;;7.70;99.90;;;;;;4990514;28;20494;-68
2022/02/20 12:07:36;;;;;;;1.00;0.55;;;7.80;99.90;;;;;;4988576;28;20113;-70
2022/02/20 12:10:20;;;;;;;0.88;0.82;;;7.80;99.90;;;;;;4989841;28;20441;-67
2022/02/20 12:12:58;;;;;;;1.42;1.02;;;7.90;99.90;;;;;;4982784;28;20031;-68
2022/02/20 12:15:29;;;;;;;1.45;0.47;;;7.90;99.90;;;;;;4972300;28;20022;-68
2022/02/20 12:18:10;;;;;;;0.85;0.80;;;7.90;99.90;;;;;;4979906;28;20026;-69
2022/02/20 12:20:51;;;;;;;0.57;0.57;;;8.00;99.90;;;;;;5004209;28;20035;-69
2022/02/20 12:23:29;;;;;;;2.08;1.33;;;8.00;99.90;;;;;;4992718;28;20034;-71
2022/02/20 12:25:59;;;;;;;0.88;0.70;;;8.00;99.90;;;;;;4986825;28;20026;-73
2022/02/20 12:28:42;;;;;;;0.70;0.70;;;8.10;99.90;;;;;;4992947;28;20022;-72
2022/02/20 12:31:31;;;;;;;0.77;0.60;;;8.10;99.90;;;;;;4982542;28;20030;-73
2022/02/20 12:33:57;;;;;;;1.85;0.70;;;8.10;99.90;;;;;;4996147;28;20312;-71
2022/02/20 12:36:30;;;;;;;4.10;1.60;;;8.20;99.90;;;;;;4991959;28;20062;-70
2022/02/20 12:38:58;;;;;;;1.23;0.73;;;8.20;99.90;;;;;;4990973;28;20105;-73
2022/02/20 12:41:24;;;;;;;3.53;0.50;;;8.20;99.90;;;;;;5003258;28;20029;-72
2022/02/20 12:43:55;;;;;;;1.17;0.60;;;8.30;99.90;;;;;;4992912;28;20031;-72
2022/02/20 12:46:22;;;;;;;1.35;0.60;;;8.30;99.90;;;;;;5008961;28;20029;-71
2022/02/20 12:48:48;;;;;;;0.90;0.60;;;8.30;99.90;;;;;;4992212;28;20382;-71
2022/02/20 12:51:14;;;;;;;0.40;0.40;;;8.40;99.90;;;;;;4992995;28;20027;-72
2022/02/20 12:53:44;;;;;;;0.80;0.60;;;8.40;99.90;;;;;;4992553;28;20034;-71
2022/02/20 12:56:10;;;;;;;0.50;0.50;;;8.40;99.90;;;;;;4992870;28;20046;-72
2022/02/20 12:58:51;;;;;;;1.30;0.52;;;8.50;99.90;;;;;;4989811;28;20487;-72
2022/02/20 13:01:19;;;;;;;0.70;0.70;;;8.50;99.90;;;;;;4996560;28;20034;-71
2022/02/20 13:03:49;;;;;;;0.50;0.50;;;8.60;99.90;;;;;;4992858;28;20022;-72
2022/02/20 13:06:15;;;;;;;0.98;0.40;;;8.60;99.90;;;;;;4991428;28;20079;-70
2022/02/20 13:08:41;;;;;;;1.33;0.60;;;8.70;99.90;;;;;;4991081;28;20510;-73
2022/02/20 13:11:08;;;;;;;0.50;0.40;;;8.70;99.90;;;;;;4992879;28;20038;-72
2022/02/20 13:13:36;;;;;;;0.63;0.55;;;8.70;99.90;;;;;;4991381;28;20038;-71
2022/02/20 13:16:04;;;;;;;1.48;0.50;;;8.70;99.90;;;;;;4992023;28;20089;-71
2022/02/20 13:18:34;;;;;;;0.40;0.40;;;8.80;99.90;;;;;;4994084;28;20089;-72
2022/02/20 13:21:15;;;;;;;0.93;0.70;;;8.80;99.90;;;;;;4992287;28;20030;-70
2022/02/20 13:23:45;;;;;;;1.17;0.80;;;8.90;99.90;;;;;;4988288;28;20058;-72
2022/02/20 13:26:24;;;;;;;0.57;0.57;;;8.90;99.90;;;;;;4989952;28;20081;-74
2022/02/20 13:28:50;;;;;;;0.85;0.60;;;9.00;99.90;;;;;;4988136;28;20205;-71
2022/02/20 13:31:22;;;;;;;2.28;0.45;;;9.00;99.90;;;;;;4993574;28;20031;-71
2022/02/20 13:33:54;;;;;;;1.17;0.52;;;9.00;99.90;;;;;;5006638;28;20033;-72
2022/02/20 13:36:22;;;;;;;1.13;0.70;;;9.10;99.90;;;;;;4993531;28;20033;-73